Time;durP1;ratioP1;P1;durP2;ratioP2;P2;SDS_P1;SDS_P2;PMS_P1;PMS_P2;Temp;Humidity;BMP_temperature;BMP_pressure;BME280_temperature;BME280_humidity;BME280_pressure;Samples;Min_cycle;Max_cycle;Signal;HPM_P1;HPM_P2
2021/09/10 00:02:55;;;;;;;22.20;15.60;;;;;;;15.23;63.84;100215.94;112028;1207;137283;-75
2021/09/10 00:06:49;;;;;;;23.10;15.80;;;;;;;15.16;64.00;100213.35;111833;1212;107962;-74
2021/09/10 00:10:56;;;;;;;19.80;14.80;;;;;;;15.07;64.19;100218.31;111102;1217;137034;-74
2021/09/10 00:19:11;;;;;;;21.40;15.20;;;;;;;14.98;64.49;100215.09;110736;1228;94151;-75
2021/09/10 00:23:42;;;;;;;22.70;15.30;;;;;;;14.93;64.56;100211.55;110097;1231;137232;-74
2021/09/10 00:35:11;;;;;;;;;;;;;;;;;;;;;
2021/09/10 00:39:11;;;;;;;;;;;;;;;;;;;;;
2021/09/10 00:43:34;;;;;;;22.20;15.50;;;;;;;14.88;64.89;100213.67;112033;1210;94130;-74
2021/09/10 00:47:19;;;;;;;22.60;15.00;;;;;;;14.82;64.88;100206.84;111688;1212;136807;-73
2021/09/10 00:51:27;;;;;;;18.90;14.30;;;;;;;14.77;64.95;100202.73;111249;1217;137763;-74
2021/09/10 00:56:02;;;;;;;26.80;14.80;;;;;;;14.73;65.20;100206.95;110721;1219;108502;-74
2021/09/10 01:03:41;;;;;;;;;;;;;;;;;;;;;
2021/09/10 01:11:49;;;;;;;;;;;;;;;;;;;;;
2021/09/10 01:16:21;;;;;;;21.30;15.00;;;;;;;14.57;65.87;100194.81;109359;1229;138074;-74
2021/09/10 01:20:27;;;;;;;22.20;14.40;;;;;;;14.55;65.85;100196.46;109592;1235;94977;-73
2021/09/10 01:24:32;;;;;;;22.70;15.20;;;;;;;14.53;66.08;100193.92;109687;1234;137632;-73
2021/09/10 01:32:43;;;;;;;18.70;13.50;;;;;;;14.53;65.94;100194.11;109896;1228;105174;-74
2021/09/10 01:36:14;;;;;;;;;;;;;;;;;;;;;
2021/09/10 01:40:55;;;;;;;19.70;14.50;;;;;;;14.51;66.06;100194.01;111483;1219;637357;-74
2021/09/10 01:45:03;;;;;;;24.80;14.90;;;;;;;14.47;66.07;100191.40;111968;1209;94197;-75
2021/09/10 01:49:36;;;;;;;18.40;14.20;;;;;;;14.47;65.99;100190.16;111848;1218;93934;-74
2021/09/10 01:53:01;;;;;;;19.50;14.80;;;;;;;14.46;66.13;100186.21;111582;1220;136812;-74
2021/09/10 01:57:09;;;;;;;20.10;14.50;;;;;;;14.44;66.17;100183.69;111325;1215;106269;-74
2021/09/10 02:13:20;;;;;;;;;;;;;;;;;;;;;
2021/09/10 02:29:23;;;;;;;22.70;14.30;;;;;;;14.01;67.27;100185.74;111419;1221;635315;-73
2021/09/10 02:33:42;;;;;;;;;;;;;;;;;;;;;
2021/09/10 02:41:52;;;;;;;18.20;14.50;;;;;;;13.85;67.39;100184.58;112077;1212;137374;-73
2021/09/10 02:58:54;;;;;;;19.20;13.80;;;;;;;13.60;68.00;100185.17;111222;1217;94058;-73
2021/09/10 03:02:59;;;;;;;20.80;15.30;;;;;;;13.57;68.08;100186.91;111196;1222;137507;-74
2021/09/10 03:19:22;;;;;;;23.10;15.40;;;;;;;13.42;68.70;100183.23;110298;1230;137382;-74
2021/09/10 03:23:28;;;;;;;20.80;15.00;;;;;;;13.37;68.66;100181.34;110263;1230;108345;-74
2021/09/10 03:39:49;;;;;;;21.20;15.00;;;;;;;13.20;69.12;100181.76;110153;1231;137073;-74
2021/09/10 03:43:22;;;;;;;;;;;;;;;;;;;;;
2021/09/10 03:47:54;;;;;;;22.80;16.60;;;;;;;13.16;69.45;100181.05;111415;1220;636006;-73
2021/09/10 03:52:03;;;;;;;22.00;15.90;;;;;;;13.09;69.68;100179.42;112268;1204;93959;-73
2021/09/10 03:56:35;;;;;;;21.70;15.50;;;;;;;13.04;69.93;100177.88;111970;1209;137392;-74
2021/09/10 04:00:41;;;;;;;19.50;15.20;;;;;;;13.00;69.94;100177.87;111396;1220;636190;-75
2021/09/10 04:04:50;;;;;;;23.10;15.80;;;;;;;12.97;69.94;100178.19;112216;1204;93962;-74
2021/09/10 04:08:59;;;;;;;22.20;16.30;;;;;;;12.97;70.04;100182.20;111597;1214;137058;-74
2021/09/10 04:17:28;;;;;;;;;;;;;;;;;;;;;
2021/09/10 04:22:00;;;;;;;20.90;15.80;;;;;;;13.07;69.95;100180.37;110089;1228;137038;-74
2021/09/10 04:25:59;;;;;;;22.30;15.70;;;;;;;13.43;69.53;100183.17;110153;1233;93925;-74
2021/09/10 04:33:30;;;;;;;27.20;16.80;;;;;;;14.76;67.37;100173.86;111371;1220;636130;-74
2021/09/10 04:37:32;;;;;;;22.30;15.80;;;;;;;15.93;65.01;100175.20;112175;1212;93871;-75
2021/09/10 04:41:41;;;;;;;25.80;16.10;;;;;;;17.03;62.39;100176.28;111899;1216;136519;-75
2021/09/10 04:45:50;;;;;;;25.00;16.50;;;;;;;18.24;60.38;100171.88;111898;1211;137221;-74
2021/09/10 04:49:51;;;;;;;24.90;15.80;;;;;;;19.45;57.52;100170.77;112022;1217;107117;-74
2021/09/10 04:53:52;;;;;;;25.30;15.90;;;;;;;20.54;55.04;100169.52;111890;1217;136990;-75
2021/09/10 04:57:39;;;;;;;29.20;16.10;;;;;;;21.46;51.71;100168.19;111716;1216;137429;-75
2021/09/10 05:01:09;;;;;;;23.30;14.90;;;;;;;22.10;50.07;100158.78;111280;1227;93933;-75
2021/09/10 05:04:49;;;;;;;20.60;15.10;;;;;;;22.90;47.92;100160.89;111240;1219;137339;-74
2021/09/10 05:08:38;;;;;;;20.90;13.90;;;;;;;23.53;46.28;100159.54;111571;1219;106181;-73
2021/09/10 05:12:12;;;;;;;19.80;13.70;;;;;;;24.37;44.91;100159.45;111022;1220;108549;-75
2021/09/10 05:15:11;;;;;;;15.80;12.30;;;;;;;25.00;43.10;100157.02;111224;1224;137683;-74
2021/09/10 05:18:33;;;;;;;21.90;14.20;;;;;;;25.53;42.16;100155.00;111627;1216;94876;-74
2021/09/10 05:21:21;;;;;;;18.60;14.50;;;;;;;26.09;40.69;100155.08;111772;1213;137149;-74
2021/09/10 05:24:45;;;;;;;19.40;13.30;;;;;;;26.49;39.44;100153.05;111974;1216;107352;-74
2021/09/10 05:28:24;;;;;;;14.80;12.00;;;;;;;26.89;38.37;100154.52;111883;1211;137227;-74
2021/09/10 05:31:51;;;;;;;13.80;11.40;;;;;;;27.36;38.17;100156.54;112004;1211;94915;-76
2021/09/10 05:35:22;;;;;;;;;;;;;;;;;;;;;
2021/09/10 05:38:25;;;;;;;17.50;12.40;;;;;;;28.84;35.72;100154.23;112283;1205;109561;-74
2021/09/10 05:41:25;;;;;;;17.90;12.20;;;;;;;29.31;34.57;100158.24;112166;1203;137073;-74
2021/09/10 05:44:24;;;;;;;15.40;11.10;;;;;;;29.84;34.07;100155.79;112243;1209;107784;-74
2021/09/10 05:47:32;;;;;;;15.50;11.60;;;;;;;30.46;33.20;100152.09;112068;1205;137040;-74
2021/09/10 05:50:36;;;;;;;16.60;11.10;;;;;;;30.72;31.85;100155.08;112490;1207;94911;-74
2021/09/10 05:53:35;;;;;;;17.60;11.70;;;;;;;31.21;31.24;100154.94;112371;1202;136880;-74
2021/09/10 05:56:22;;;;;;;20.00;11.10;;;;;;;31.56;30.19;100153.77;112467;1208;106627;-75
2021/09/10 05:59:23;;;;;;;18.00;10.50;;;;;;;31.84;30.11;100156.52;112379;1203;137287;-74
2021/09/10 06:02:11;;;;;;;13.70;9.20;;;;;;;32.57;29.86;100158.36;112502;1200;94960;-75
2021/09/10 06:05:07;;;;;;;19.00;11.20;;;;;;;32.96;28.93;100157.70;112344;1199;136791;-74
2021/09/10 06:07:55;;;;;;;15.50;10.60;;;;;;;33.27;28.45;100158.02;112493;1203;108351;-74
2021/09/10 06:10:45;;;;;;;12.10;9.10;;;;;;;34.01;28.17;100158.01;112327;1201;137210;-76
2021/09/10 06:13:45;;;;;;;11.90;9.10;;;;;;;34.55;26.90;100158.58;112475;1199;99862;-74
2021/09/10 06:16:34;;;;;;;12.50;9.40;;;;;;;34.60;26.14;100162.04;112286;1206;136811;-75
2021/09/10 06:19:22;;;;;;;14.80;9.10;;;;;;;34.93;26.37;100161.13;112477;1202;95257;-73
2021/09/10 06:22:13;;;;;;;11.10;8.20;;;;;;;35.64;25.45;100161.08;112427;1207;136781;-74
2021/09/10 06:25:03;;;;;;;11.50;8.50;;;;;;;36.04;25.00;100163.34;112372;1208;98606;-74
2021/09/10 06:27:51;;;;;;;11.40;8.40;;;;;;;36.46;23.75;100162.98;112269;1206;137038;-74
2021/09/10 06:30:39;;;;;;;10.20;7.80;;;;;;;36.47;23.51;100162.44;112419;1202;95012;-74
2021/09/10 06:33:26;;;;;;;15.10;8.80;;;;;;;36.63;23.22;100167.30;112345;1203;137232;-73
2021/09/10 06:36:14;;;;;;;13.20;8.40;;;;;;;36.99;22.90;100170.30;112494;1208;99899;-74
2021/09/10 06:39:02;;;;;;;13.80;8.80;;;;;;;37.47;22.57;100168.75;112489;1201;97523;-74
2021/09/10 06:41:50;;;;;;;14.50;9.10;;;;;;;37.99;22.05;100164.86;112478;1203;98852;-75
2021/09/10 06:44:37;;;;;;;12.80;7.50;;;;;;;38.42;21.46;100166.20;112473;1199;94907;-75
2021/09/10 06:47:25;;;;;;;13.20;8.00;;;;;;;38.64;21.15;100164.42;112389;1201;136971;-74
2021/09/10 06:50:13;;;;;;;15.60;9.10;;;;;;;39.14;20.74;100162.65;112481;1203;100952;-75
2021/09/10 06:53:04;;;;;;;14.30;7.90;;;;;;;39.39;20.33;100163.38;112406;1208;136900;-74
2021/09/10 06:55:54;;;;;;;14.10;7.80;;;;;;;39.72;20.71;100165.66;112417;1201;98941;-73
2021/09/10 06:58:43;;;;;;;13.40;8.20;;;;;;;40.05;20.29;100170.08;112254;1208;137191;-74
2021/09/10 07:01:32;;;;;;;12.40;7.80;;;;;;;40.04;19.71;100168.11;112497;1208;94870;-75
2021/09/10 07:04:22;;;;;;;13.40;7.90;;;;;;;39.82;19.67;100171.41;112420;1199;137192;-74
2021/09/10 07:07:17;;;;;;;12.50;7.50;;;;;;;39.74;19.69;100171.52;112516;1199;97806;-74
2021/09/10 07:10:20;;;;;;;12.80;7.70;;;;;;;39.96;19.52;100174.58;112279;1203;137854;-74
2021/09/10 07:13:06;;;;;;;12.10;7.80;;;;;;;40.06;19.00;100182.00;112401;1208;94919;-74
2021/09/10 07:15:55;;;;;;;9.30;6.70;;;;;;;39.60;18.68;100179.11;112396;1200;136907;-74
2021/09/10 07:18:42;;;;;;;13.60;7.40;;;;;;;38.99;18.93;100180.99;112503;1203;100808;-74
2021/09/10 07:21:30;;;;;;;13.30;7.10;;;;;;;39.08;19.40;100184.38;112335;1203;137283;-74
2021/09/10 07:24:18;;;;;;;9.00;6.60;;;;;;;39.55;19.15;100187.02;112406;1201;100039;-75
2021/09/10 07:27:06;;;;;;;10.60;7.30;;;;;;;40.02;19.16;100185.91;112408;1208;94860;-74
2021/09/10 07:29:53;;;;;;;15.20;8.40;;;;;;;40.03;18.62;100188.33;112336;1202;136798;-74
2021/09/10 07:32:41;;;;;;;12.30;7.70;;;;;;;39.78;18.53;100189.02;112564;1199;100833;-74
2021/09/10 07:35:29;;;;;;;14.90;7.40;;;;;;;39.91;18.41;100191.90;112255;1208;136051;-74
2021/09/10 07:38:20;;;;;;;9.70;6.80;;;;;;;40.11;18.27;100198.61;112428;1199;99938;-74
2021/09/10 07:41:10;;;;;;;18.00;6.50;;;;;;;40.06;18.11;100199.06;112263;1208;136877;-75
2021/09/10 07:43:57;;;;;;;10.00;6.10;;;;;;;39.83;18.05;100199.60;112399;1200;95416;-74
2021/09/10 07:46:47;;;;;;;10.10;6.20;;;;;;;39.72;18.29;100202.16;112392;1203;137374;-74
2021/09/10 07:49:34;;;;;;;12.20;6.60;;;;;;;39.51;18.29;100199.66;112565;1207;98766;-73
2021/09/10 07:52:22;;;;;;;10.60;5.90;;;;;;;39.52;18.41;100204.93;112407;1206;137183;-73
2021/09/10 07:55:11;;;;;;;9.10;5.90;;;;;;;39.70;18.80;100207.23;112489;1200;94953;-73
2021/09/10 07:57:59;;;;;;;10.30;6.40;;;;;;;39.93;18.44;100207.50;112397;1203;136970;-74
2021/09/10 08:00:47;;;;;;;11.00;5.70;;;;;;;40.01;18.22;100208.21;112434;1202;100802;-74
2021/09/10 08:03:35;;;;;;;8.80;5.70;;;;;;;39.99;17.64;100210.27;112328;1199;137387;-74
2021/09/10 08:06:23;;;;;;;11.80;6.10;;;;;;;40.21;18.18;100215.89;112546;1203;97551;-73
2021/09/10 08:09:16;;;;;;;15.40;7.00;;;;;;;40.63;17.84;100216.07;112505;1207;94849;-74
2021/09/10 08:12:03;;;;;;;10.10;6.60;;;;;;;40.57;17.37;100217.94;112435;1200;136796;-74
2021/09/10 08:14:57;;;;;;;12.30;6.20;;;;;;;40.22;17.76;100214.45;112632;1201;99706;-72
2021/09/10 08:18:02;;;;;;;7.40;5.70;;;;;;;39.73;17.76;100211.13;112766;1200;137046;-74
2021/09/10 08:20:50;;;;;;;9.20;5.90;;;;;;;39.20;17.77;100208.80;112847;1203;98815;-74
2021/09/10 08:23:38;;;;;;;7.40;5.50;;;;;;;38.89;18.44;100203.83;112708;1204;136819;-75
2021/09/10 08:26:41;;;;;;;13.60;6.60;;;;;;;39.06;18.84;100202.45;112860;1198;94795;-74
2021/09/10 08:29:28;;;;;;;8.00;5.90;;;;;;;39.12;18.34;100198.67;112744;1203;137069;-74
2021/09/10 08:32:16;;;;;;;9.20;5.60;;;;;;;38.87;18.69;100200.59;112831;1203;97560;-74
2021/09/10 08:35:05;;;;;;;11.80;6.20;;;;;;;38.78;18.38;100194.45;112680;1203;135724;-74
2021/09/10 08:37:54;;;;;;;10.00;6.00;;;;;;;38.51;18.61;100199.21;112689;1205;94876;-74
2021/09/10 08:40:45;;;;;;;10.30;6.20;;;;;;;38.01;18.87;100201.86;112653;1195;137147;-73
2021/09/10 08:43:47;;;;;;;9.60;6.30;;;;;;;37.96;19.32;100196.77;112793;1195;99816;-74
2021/09/10 08:46:38;;;;;;;10.60;5.20;;;;;;;37.84;19.24;100198.52;112723;1200;136933;-74
2021/09/10 08:49:27;;;;;;;9.00;6.30;;;;;;;37.55;19.49;100199.68;112809;1203;98941;-73
2021/09/10 08:52:15;;;;;;;14.60;5.90;;;;;;;37.58;19.89;100197.64;112721;1195;137073;-74
2021/09/10 08:55:08;;;;;;;10.10;5.90;;;;;;;37.73;19.84;100197.62;112829;1196;94883;-74
2021/09/10 08:57:58;;;;;;;12.70;6.20;;;;;;;37.48;19.77;100198.92;112717;1203;137097;-74
2021/09/10 09:00:47;;;;;;;12.70;6.10;;;;;;;37.30;20.22;100192.88;112785;1198;97198;-74
2021/09/10 09:03:36;;;;;;;10.60;5.30;;;;;;;37.41;20.39;100193.72;112748;1205;99824;-73
2021/09/10 09:06:32;;;;;;;14.70;5.90;;;;;;;37.35;20.19;100192.48;112894;1203;94846;-74
2021/09/10 09:09:45;;;;;;;10.10;5.70;;;;;;;37.66;20.17;100193.15;112841;1195;94824;-74
2021/09/10 09:12:51;;;;;;;10.00;5.60;;;;;;;37.76;19.56;100201.41;112765;1204;137046;-75
2021/09/10 09:15:39;;;;;;;9.90;5.90;;;;;;;37.29;19.58;100202.45;112818;1204;97535;-73
2021/09/10 09:18:54;;;;;;;11.30;6.10;;;;;;;36.87;20.19;100199.89;112677;1203;136987;-73
2021/09/10 09:21:42;;;;;;;12.50;6.40;;;;;;;36.52;20.65;100199.05;112818;1204;94314;-74
2021/09/10 09:24:30;;;;;;;9.90;5.50;;;;;;;36.26;20.84;100197.91;112731;1203;136864;-74
2021/09/10 09:27:26;;;;;;;10.70;5.80;;;;;;;36.18;21.56;100195.48;112873;1204;100743;-74
2021/09/10 09:30:14;;;;;;;10.60;5.20;;;;;;;36.41;21.40;100191.27;112723;1203;137171;-74
2021/09/10 09:33:04;;;;;;;7.20;5.00;;;;;;;36.35;21.25;100194.83;112815;1203;98839;-74
2021/09/10 09:35:55;;;;;;;8.40;5.40;;;;;;;36.21;20.80;100190.77;112583;1203;137091;-73
2021/09/10 09:38:45;;;;;;;12.20;5.50;;;;;;;36.20;21.11;100192.61;112816;1200;96230;-74
2021/09/10 09:41:41;;;;;;;9.10;5.10;;;;;;;36.29;20.71;100192.55;112456;1203;137215;-74
2021/09/10 09:44:29;;;;;;;11.60;4.80;;;;;;;36.23;20.72;100189.27;112834;1195;98700;-74
2021/09/10 09:47:21;;;;;;;10.40;4.60;;;;;;;36.19;20.64;100189.84;112719;1198;137124;-73
2021/09/10 09:50:22;;;;;;;11.10;4.90;;;;;;;35.70;20.46;100193.59;112807;1203;96279;-74
2021/09/10 09:53:12;;;;;;;9.80;4.40;;;;;;;35.36;20.69;100190.70;112566;1204;137400;-73
2021/09/10 09:56:02;;;;;;;6.60;4.50;;;;;;;34.92;20.83;100190.14;112845;1204;102104;-74
2021/09/10 09:58:50;;;;;;;7.80;4.40;;;;;;;34.71;21.59;100193.23;112743;1204;137691;-74
2021/09/10 10:01:46;;;;;;;12.00;4.30;;;;;;;34.78;22.12;100188.23;112681;1197;99437;-74
2021/09/10 10:04:34;;;;;;;8.00;4.40;;;;;;;35.31;21.82;100188.38;112695;1195;137338;-74
2021/09/10 10:07:29;;;;;;;7.20;4.30;;;;;;;35.22;21.04;100193.02;112848;1203;96161;-74
2021/09/10 10:10:22;;;;;;;5.60;4.40;;;;;;;35.01;21.30;100188.58;112737;1203;137317;-75
2021/09/10 10:13:18;;;;;;;7.30;4.20;;;;;;;35.17;21.42;100187.60;112804;1195;97558;-75
2021/09/10 10:16:06;;;;;;;9.00;4.20;;;;;;;35.07;20.75;100187.20;112807;1203;98831;-73
2021/09/10 10:19:36;;;;;;;14.20;4.50;;;;;;;34.83;20.88;100192.64;112612;1197;96242;-74
2021/09/10 10:22:36;;;;;;;9.50;4.60;;;;;;;34.81;21.53;100189.81;112784;1203;96264;-74
2021/09/10 10:25:27;;;;;;;8.60;5.10;;;;;;;34.85;21.45;100189.53;112639;1198;101171;-73
2021/09/10 10:28:46;;;;;;;6.70;4.50;;;;;;;34.57;21.48;100187.04;112809;1195;98532;-74
2021/09/10 10:32:03;;;;;;;9.60;4.10;;;;;;;34.43;22.01;100184.00;112688;1203;136877;-74
2021/09/10 10:35:17;;;;;;;;;;;;;;;34.51;21.87;100179.73;112816;1203;96142;-73
2021/09/10 10:38:10;;;;;;;9.10;4.20;;;;;;;34.24;21.72;100180.49;112534;1200;96174;-73
2021/09/10 10:41:21;;;;;;;10.30;4.70;;;;;;;33.76;22.35;100183.46;112499;1198;101276;-73
2021/09/10 10:44:33;;;;;;;13.20;5.10;;;;;;;33.33;22.50;100187.13;112380;1200;137183;-73
2021/09/10 10:47:42;;;;;;;8.70;4.40;;;;;;;32.68;22.70;100186.80;112581;1198;106329;-72
2021/09/10 10:50:34;;;;;;;5.70;4.00;;;;;;;32.25;23.37;100180.45;112368;1198;137566;-73
2021/09/10 10:53:23;;;;;;;13.60;4.70;;;;;;;32.33;24.14;100181.17;112512;1198;96402;-76
2021/09/10 10:56:47;;;;;;;7.60;4.40;;;;;;;32.34;23.81;100183.39;112285;1199;137068;-74
2021/09/10 10:59:38;;;;;;;7.70;4.40;;;;;;;32.15;23.98;100177.39;112311;1202;107241;-73
2021/09/10 11:02:46;;;;;;;13.50;4.60;;;;;;;32.12;24.19;100173.64;112215;1208;137167;-73
2021/09/10 11:05:37;;;;;;;10.50;4.80;;;;;;;32.08;24.23;100169.66;112267;1203;96344;-72
2021/09/10 11:08:54;;;;;;;6.80;4.10;;;;;;;32.00;24.38;100176.02;112185;1203;137319;-74
2021/09/10 11:12:10;;;;;;;7.80;4.40;;;;;;;32.10;24.76;100167.98;112199;1206;110763;-73
2021/09/10 11:15:15;;;;;;;12.00;5.00;;;;;;;32.06;24.45;100169.56;112021;1205;136981;-73
2021/09/10 11:18:14;;;;;;;9.50;4.60;;;;;;;31.51;24.33;100170.92;112141;1211;107798;-73
2021/09/10 11:21:13;;;;;;;9.90;4.70;;;;;;;30.95;24.38;100170.52;112069;1203;136968;-72
2021/09/10 11:24:31;;;;;;;12.20;4.20;;;;;;;30.53;25.15;100168.50;112155;1206;96212;-72
2021/09/10 11:27:52;;;;;;;5.90;4.00;;;;;;;30.15;25.05;100175.94;112185;1206;110893;-72
2021/09/10 11:30:47;;;;;;;6.00;4.40;;;;;;;29.83;25.86;100174.13;112121;1204;107812;-72
2021/09/10 11:33:51;;;;;;;5.20;3.90;;;;;;;29.79;26.33;100173.98;112158;1201;137076;-74
2021/09/10 11:37:01;;;;;;;6.90;3.70;;;;;;;29.64;25.54;100170.73;112302;1207;96276;-74
2021/09/10 11:39:52;;;;;;;6.60;3.40;;;;;;;29.46;26.07;100167.52;112279;1207;136902;-74
2021/09/10 11:43:22;;;;;;;10.30;4.40;;;;;;;29.41;26.52;100164.52;112501;1207;110830;-73
2021/09/10 11:46:25;;;;;;;11.30;4.40;;;;;;;29.46;26.93;100164.48;112339;1200;137194;-74
2021/09/10 11:50:08;;;;;;;11.30;4.20;;;;;;;29.54;26.28;100167.23;112743;1204;108677;-73
2021/09/10 11:53:21;;;;;;;6.70;3.90;;;;;;;29.19;26.33;100164.45;112776;1203;96253;-73
2021/09/10 11:56:28;;;;;;;6.90;4.40;;;;;;;28.88;26.67;100160.54;112813;1196;96285;-74
2021/09/10 11:59:29;;;;;;;;;;;;;;;;;;;;;
2021/09/10 12:02:23;;;;;;;6.50;3.80;;;;;;;28.72;27.35;100161.56;112737;1196;107182;-74
2021/09/10 12:05:53;;;;;;;;;;;;;;;;;;;;;
2021/09/10 12:09:42;;;;;;;6.70;3.70;;;;;;;28.72;27.53;100158.17;112780;1203;96170;-74
2021/09/10 12:12:33;;;;;;;9.90;4.00;;;;;;;28.73;26.97;100149.89;112521;1205;94020;-74
2021/09/10 12:15:29;;;;;;;5.80;3.70;;;;;;;28.66;26.95;100145.33;112548;1205;109837;-74
2021/09/10 12:18:22;;;;;;;9.30;3.70;;;;;;;28.67;27.49;100145.70;112475;1198;137137;-74
2021/09/10 12:21:49;;;;;;;6.10;3.30;;;;;;;28.94;27.23;100147.26;112534;1198;108547;-74
2021/09/10 12:24:37;;;;;;;;;;;;;;;28.79;26.05;100152.45;112508;1204;137164;-74
2021/09/10 12:28:07;;;;;;;7.10;3.30;;;;;;;28.54;26.07;100145.87;112589;1198;96338;-71
2021/09/10 12:31:42;;;;;;;;;;;;;;;;;;;;;
2021/09/10 12:34:41;;;;;;;6.30;3.30;;;;;;;28.29;26.17;100135.52;112560;1198;107148;-73
2021/09/10 12:38:09;;;;;;;4.60;3.30;;;;;;;28.28;26.52;100136.54;112567;1203;106466;-73
2021/09/10 12:41:22;;;;;;;5.60;3.60;;;;;;;28.27;26.52;100137.67;112550;1198;96521;-73
2021/09/10 12:44:30;;;;;;;8.10;4.20;;;;;;;28.19;26.98;100131.29;112705;1204;96184;-72
2021/09/10 12:48:16;;;;;;;6.70;3.80;;;;;;;28.24;27.29;100132.45;112728;1195;110851;-72
2021/09/10 12:51:32;;;;;;;6.70;3.70;;;;;;;28.43;27.10;100132.05;112796;1197;107245;-72
2021/09/10 12:54:36;;;;;;;7.90;3.50;;;;;;;28.33;27.05;100128.36;112682;1196;137860;-73
2021/09/10 12:57:36;;;;;;;7.50;3.30;;;;;;;28.24;26.99;100133.75;112839;1195;96253;-74
2021/09/10 13:01:15;;;;;;;7.80;3.60;;;;;;;28.17;27.17;100122.70;112691;1204;137100;-72
2021/09/10 13:04:25;;;;;;;9.20;3.80;;;;;;;28.01;26.99;100124.77;112811;1195;109777;-73
2021/09/10 13:07:25;;;;;;;8.30;3.30;;;;;;;27.94;27.50;100124.98;112677;1196;137309;-72
2021/09/10 13:10:36;;;;;;;7.20;3.50;;;;;;;28.06;27.41;100124.27;112808;1203;108406;-72
2021/09/10 13:13:48;;;;;;;9.80;4.00;;;;;;;28.22;27.38;100123.39;112721;1203;137198;-72
2021/09/10 13:17:12;;;;;;;5.70;3.00;;;;;;;28.12;27.46;100121.63;112604;1196;96239;-72
2021/09/10 13:20:25;;;;;;;10.50;3.50;;;;;;;28.07;27.71;100122.23;112509;1198;137625;-71
2021/09/10 13:24:14;;;;;;;;;;;;;;;;;;;;;
2021/09/10 13:27:40;;;;;;;5.60;3.40;;;;;;;27.90;27.11;100115.95;112563;1204;108377;-72
2021/09/10 13:30:27;;;;;;;12.30;4.20;;;;;;;27.70;27.30;100115.07;112533;1201;96178;-72
2021/09/10 13:33:25;;;;;;;5.40;3.10;;;;;;;27.65;27.22;100114.67;112569;1196;137149;-73
2021/09/10 13:36:18;;;;;;;6.70;3.00;;;;;;;27.59;27.18;100118.83;112778;1203;109825;-73
2021/09/10 13:39:29;;;;;;;5.60;3.00;;;;;;;27.51;27.27;100114.02;112652;1204;137287;-71
2021/09/10 13:42:51;;;;;;;5.70;3.10;;;;;;;27.61;27.83;100112.98;112786;1196;107380;-73
2021/09/10 13:46:39;;;;;;;;;;;;;;;;;;;;;
2021/09/10 13:50:06;;;;;;;5.60;2.70;;;;;;;27.67;26.98;100113.77;112330;1206;137446;-73
2021/09/10 13:53:29;;;;;;;6.70;2.80;;;;;;;27.47;27.04;100117.63;112321;1200;110718;-73
2021/09/10 13:57:20;;;;;;;;;;;;;;;;;;;;;
2021/09/10 14:00:28;;;;;;;3.70;2.50;;;;;;;27.40;27.00;100116.05;112337;1200;108520;-72
2021/09/10 14:03:41;;;;;;;4.50;2.60;;;;;;;27.47;27.23;100117.17;112162;1207;137239;-72
2021/09/10 14:06:51;;;;;;;7.40;2.80;;;;;;;27.50;27.26;100118.09;112301;1207;96225;-73
2021/09/10 14:09:43;;;;;;;5.20;2.90;;;;;;;27.45;26.87;100116.13;112337;1199;137187;-73
2021/09/10 14:12:45;;;;;;;;;;;;;;;;;;;;;
2021/09/10 14:16:17;;;;;;;8.30;2.50;;;;;;;27.36;26.33;100118.95;112005;1200;137342;-73
2021/09/10 14:19:13;;;;;;;6.20;2.70;;;;;;;27.22;26.07;100121.19;112279;1199;96322;-73
2021/09/10 14:22:33;;;;;;;2.60;2.30;;;;;;;27.04;25.99;100119.04;112172;1200;136738;-72
2021/09/10 14:25:33;;;;;;;3.70;2.50;;;;;;;26.91;26.27;100120.45;112422;1200;110788;-72
2021/09/10 14:28:44;;;;;;;4.20;2.80;;;;;;;26.86;26.18;100119.39;112609;1204;137085;-72
2021/09/10 14:31:35;;;;;;;8.50;2.90;;;;;;;26.78;26.20;100115.85;112724;1196;108640;-72
2021/09/10 14:38:10;;;;;;;6.50;2.70;;;;;;;26.69;26.53;100121.78;112655;1204;97036;-72
2021/09/10 14:41:42;;;;;;;7.70;2.40;;;;;;;26.68;26.83;100120.47;112723;1204;110587;-73
2021/09/10 14:45:26;;;;;;;8.50;3.50;;;;;;;26.63;26.81;100120.61;112849;1197;106817;-72
2021/09/10 14:48:42;;;;;;;;;;;;;;;;;;;;;
2021/09/10 14:52:01;;;;;;;6.20;2.80;;;;;;;26.42;26.74;100127.57;112449;1200;96227;-73
2021/09/10 14:55:18;;;;;;;3.80;2.60;;;;;;;26.34;26.70;100124.92;112558;1200;96617;-73
2021/09/10 14:58:54;;;;;;;11.10;3.10;;;;;;;26.31;27.02;100119.53;112525;1207;109634;-73
2021/09/10 15:02:18;;;;;;;6.60;2.60;;;;;;;26.33;27.22;100119.21;112566;1207;107163;-71
2021/09/10 15:05:20;;;;;;;9.40;2.70;;;;;;;26.27;26.80;100115.20;112363;1200;137509;-71
2021/09/10 15:08:21;;;;;;;;;;;;;;;;;;;;;
2021/09/10 15:11:39;;;;;;;10.20;2.90;;;;;;;26.05;26.58;100117.85;112407;1200;137793;-72
2021/09/10 15:14:30;;;;;;;5.60;2.40;;;;;;;25.93;26.92;100117.13;112487;1207;110840;-75
2021/09/10 15:17:41;;;;;;;5.20;2.60;;;;;;;25.87;27.08;100119.50;112321;1207;136322;-73
2021/09/10 15:21:14;;;;;;;5.50;2.70;;;;;;;25.75;27.16;100112.45;112522;1207;108576;-72
2021/09/10 15:25:10;;;;;;;3.80;2.50;;;;;;;25.69;27.31;100110.05;112365;1206;137251;-72
2021/09/10 15:28:47;;;;;;;;;;;;;;;;;;;;;
2021/09/10 15:32:26;;;;;;;8.00;2.50;;;;;;;25.58;27.91;100110.58;112860;1198;110824;-73
2021/09/10 15:35:28;;;;;;;5.10;2.60;;;;;;;25.52;28.15;100104.55;112842;1203;106119;-73
2021/09/10 15:38:46;;;;;;;5.80;2.70;;;;;;;25.46;28.07;100103.69;112750;1196;108506;-72
2021/09/10 15:41:39;;;;;;;5.10;2.60;;;;;;;25.40;28.07;100105.00;112815;1204;96239;-72
2021/09/10 15:44:57;;;;;;;7.20;2.80;;;;;;;25.37;28.36;100101.59;112817;1197;97353;-73
2021/09/10 15:48:30;;;;;;;6.30;2.60;;;;;;;25.34;28.30;100099.15;112809;1204;110900;-72
2021/09/10 15:51:54;;;;;;;6.50;2.60;;;;;;;25.28;28.41;100100.90;112696;1200;107346;-73
2021/09/10 15:55:54;;;;;;;6.90;2.70;;;;;;;25.22;28.38;100098.86;112630;1198;137380;-72
2021/09/10 15:59:26;;;;;;;8.60;2.90;;;;;;;25.16;28.55;100100.16;112697;1198;96306;-73
2021/09/10 16:02:27;;;;;;;6.10;2.60;;;;;;;25.08;28.72;100096.35;112593;1198;137196;-72
2021/09/10 16:05:45;;;;;;;6.40;2.60;;;;;;;25.00;29.00;100099.77;112687;1205;109728;-73
2021/09/10 16:08:56;;;;;;;6.40;2.60;;;;;;;24.93;28.92;100101.63;112608;1205;137919;-73
2021/09/10 16:11:51;;;;;;;4.20;2.80;;;;;;;24.86;29.20;100104.23;112676;1205;106927;-72
2021/09/10 16:14:55;;;;;;;;;;;;;;;;;;;;;
2021/09/10 16:18:14;;;;;;;5.80;2.70;;;;;;;24.70;29.61;100097.58;112568;1205;96288;-72
2021/09/10 16:22:03;;;;;;;6.20;2.80;;;;;;;24.61;29.86;100095.19;112592;1203;136989;-74
2021/09/10 16:25:24;;;;;;;5.00;2.50;;;;;;;24.52;29.86;100098.92;112262;1200;137473;-71
2021/09/10 16:29:04;;;;;;;;;;;;;;;;;;;;;
2021/09/10 16:32:44;;;;;;;5.60;2.60;;;;;;;24.34;30.38;100095.63;112510;1206;137326;-72
2021/09/10 16:36:27;;;;;;;9.00;3.10;;;;;;;24.25;30.79;100099.48;112647;1206;96330;-72
2021/09/10 16:43:13;;;;;;;4.90;2.50;;;;;;;24.01;31.39;100095.33;112655;1199;107180;-73
2021/09/10 16:46:31;;;;;;;;;;;;;;;;;;;;;
2021/09/10 16:49:58;;;;;;;11.30;3.20;;;;;;;23.82;32.12;100102.95;112653;1206;96201;-73
2021/09/10 16:53:25;;;;;;;;;;;;;;;;;;;;;
2021/09/10 16:56:50;;;;;;;10.20;3.30;;;;;;;23.56;33.08;100103.54;112239;1207;137428;-72
2021/09/10 17:00:23;;;;;;;15.50;4.10;;;;;;;23.44;33.35;100102.61;112527;1199;107344;-72
2021/09/10 17:03:34;;;;;;;;;;;;;;;23.31;33.80;100104.85;112706;1203;137460;-72
2021/09/10 17:07:31;;;;;;;;;;;;;;;;;;;;;
2021/09/10 17:11:30;;;;;;;;;;;;;;;;;;;;;
2021/09/10 17:15:00;;;;;;;;;;;;;;;;;;;;;
2021/09/10 17:18:50;;;;;;;;;;;;;;;;;;;;;
2021/09/10 17:22:38;;;;;;;7.80;4.30;;;;;;;22.63;35.52;100116.47;111684;1211;137191;-73
2021/09/10 17:26:31;;;;;;;11.60;4.30;;;;;;;22.53;35.58;100119.14;111971;1209;96243;-72